createdAt,value
2022-11-20T00:00:59.851Z,6.53
2022-11-20T00:04:13.574Z,7.47
2022-11-20T00:07:36.162Z,6.82
2022-11-20T00:10:43.411Z,7.50
2022-11-20T00:13:55.746Z,7.63
2022-11-20T00:17:05.139Z,8.30
2022-11-20T00:20:18.521Z,7.80
2022-11-20T00:35:22.039Z,7.43
2022-11-20T00:38:34.165Z,7.95
2022-11-20T00:41:43.610Z,8.02
2022-11-20T00:44:53.917Z,7.20
2022-11-20T00:48:02.331Z,7.38
2022-11-20T00:51:12.632Z,7.93
2022-11-20T00:54:19.554Z,6.57
2022-11-20T00:57:26.761Z,7.15
2022-11-20T01:00:36.830Z,6.70
2022-11-20T01:07:08.178Z,7.40
2022-11-20T01:10:18.553Z,6.90
2022-11-20T01:13:39.225Z,8.35
2022-11-20T01:16:51.411Z,7.88
2022-11-20T01:20:00.139Z,7.47
2022-11-20T01:23:11.770Z,7.95
2022-11-20T01:26:20.501Z,7.97
2022-11-20T01:29:28.870Z,7.72
2022-11-20T01:32:37.183Z,8.05
2022-11-20T01:35:47.024Z,8.85
2022-11-20T01:39:00.610Z,8.38
2022-11-20T01:42:25.733Z,7.43
2022-11-20T01:45:58.749Z,8.20
2022-11-20T01:49:28.765Z,8.10
2022-11-20T01:52:43.829Z,8.05
2022-11-20T01:56:00.529Z,8.23
2022-11-20T01:59:36.543Z,7.43
2022-11-20T02:02:43.405Z,8.80
2022-11-20T02:06:12.302Z,10.65
2022-11-20T02:09:18.323Z,8.75
2022-11-20T02:12:46.632Z,8.10
2022-11-20T02:15:54.245Z,7.60
2022-11-20T02:19:07.880Z,8.40
2022-11-20T02:22:18.341Z,7.38
2022-11-20T02:25:31.990Z,8.98
2022-11-20T02:28:41.814Z,8.70
2022-11-20T02:31:50.745Z,8.93
2022-11-20T02:34:58.562Z,10.52
2022-11-20T02:38:08.439Z,11.07
2022-11-20T02:41:16.842Z,10.80
2022-11-20T02:44:31.978Z,9.90
2022-11-20T02:47:39.983Z,8.98
2022-11-20T02:50:45.816Z,9.40
2022-11-20T02:53:59.328Z,9.35
2022-11-20T02:57:13.391Z,9.88
2022-11-20T03:00:32.474Z,9.02
2022-11-20T03:03:49.653Z,9.15
2022-11-20T03:06:56.109Z,8.45
2022-11-20T03:10:09.335Z,7.82
2022-11-20T03:13:35.080Z,9.20
2022-11-20T03:16:43.581Z,8.88
2022-11-20T03:19:54.775Z,8.82
2022-11-20T03:23:00.079Z,9.95
2022-11-20T03:26:12.317Z,9.77
2022-11-20T03:32:51.581Z,9.35
2022-11-20T03:36:01.067Z,8.45
2022-11-20T03:39:06.997Z,8.60
2022-11-20T03:42:32.661Z,9.52
2022-11-20T03:45:46.694Z,9.43
2022-11-20T03:48:54.346Z,8.93
2022-11-20T03:52:02.952Z,8.50
2022-11-20T03:55:09.942Z,8.18
2022-11-20T03:58:16.429Z,9.73
2022-11-20T04:01:28.871Z,9.27
2022-11-20T04:04:37.009Z,9.73
2022-11-20T04:07:47.288Z,8.95
2022-11-20T04:11:00.685Z,9.25
2022-11-20T04:14:07.057Z,8.20
2022-11-20T04:17:18.670Z,9.45
2022-11-20T04:20:28.295Z,8.73
2022-11-20T04:27:08.573Z,9.00
2022-11-20T04:30:17.294Z,8.68
2022-11-20T04:33:38.989Z,8.88
2022-11-20T04:36:48.756Z,10.10
2022-11-20T04:39:54.622Z,10.20
2022-11-20T04:43:05.861Z,10.30
2022-11-20T04:46:14.201Z,11.10
2022-11-20T04:49:23.914Z,10.15
2022-11-20T04:52:32.000Z,10.20
2022-11-20T04:55:42.876Z,8.98
2022-11-20T04:58:52.192Z,11.38
2022-11-20T05:02:00.009Z,11.13
2022-11-20T05:05:12.044Z,10.70
2022-11-20T05:08:31.278Z,11.05
2022-11-20T05:11:40.951Z,10.73
2022-11-20T05:14:47.784Z,8.77
2022-11-20T05:17:54.350Z,12.23
2022-11-20T05:21:15.849Z,11.07
2022-11-20T05:24:24.168Z,11.10
2022-11-20T05:27:48.617Z,9.90
2022-11-20T05:30:56.711Z,9.88
2022-11-20T05:34:06.417Z,10.25
2022-11-20T05:37:16.915Z,9.18
2022-11-20T05:40:24.828Z,8.73
2022-11-20T05:43:39.311Z,14.43
2022-11-20T05:46:45.396Z,12.13
2022-11-20T05:49:52.848Z,10.15
2022-11-20T05:53:03.943Z,10.23
2022-11-20T05:56:12.182Z,10.85
2022-11-20T05:59:24.758Z,11.20
2022-11-20T06:02:34.716Z,9.63
2022-11-20T06:05:44.689Z,11.27
2022-11-20T06:08:56.608Z,10.10
2022-11-20T06:12:14.276Z,8.65
2022-11-20T06:15:20.506Z,10.10
2022-11-20T06:18:31.478Z,11.32
2022-11-20T06:21:39.787Z,10.07
2022-11-20T06:24:51.048Z,11.75
2022-11-20T06:27:57.517Z,10.55
2022-11-20T06:31:10.384Z,10.45
2022-11-20T06:34:15.754Z,9.60
2022-11-20T06:37:35.162Z,9.35
2022-11-20T06:40:45.854Z,10.32
2022-11-20T06:43:55.147Z,10.60
2022-11-20T06:47:07.120Z,10.30
2022-11-20T06:50:15.506Z,10.40
2022-11-20T06:53:22.173Z,9.68
2022-11-20T06:56:35.879Z,10.63
2022-11-20T06:59:42.028Z,9.95
2022-11-20T07:02:49.316Z,9.50
2022-11-20T07:05:58.684Z,10.57
2022-11-20T07:09:12.680Z,10.93
2022-11-20T07:12:24.070Z,10.55
2022-11-20T07:15:33.298Z,10.23
2022-11-20T07:18:44.736Z,10.30
2022-11-20T07:21:55.370Z,10.27
2022-11-20T07:25:08.161Z,10.98
2022-11-20T07:28:16.433Z,11.05
2022-11-20T07:31:30.382Z,11.02
2022-11-20T07:34:41.126Z,11.27
2022-11-20T07:37:53.730Z,10.18
2022-11-20T07:41:05.725Z,10.85
2022-11-20T07:44:15.994Z,10.38
2022-11-20T07:47:22.152Z,10.32
2022-11-20T07:50:27.462Z,10.98
2022-11-20T07:53:34.720Z,10.85
2022-11-20T07:56:53.023Z,12.27
2022-11-20T08:00:07.077Z,11.07
2022-11-20T08:03:14.010Z,10.73
2022-11-20T08:06:23.501Z,10.50
2022-11-20T08:09:33.163Z,10.80
2022-11-20T08:12:54.129Z,10.50
2022-11-20T08:16:08.523Z,10.40
2022-11-20T08:19:17.891Z,11.00
2022-11-20T08:22:28.299Z,10.50
2022-11-20T08:25:35.586Z,10.63
2022-11-20T08:28:43.976Z,10.75
2022-11-20T08:31:57.569Z,11.50
2022-11-20T08:35:17.710Z,10.73
2022-11-20T08:38:29.188Z,12.70
2022-11-20T08:41:37.905Z,10.48
2022-11-20T08:44:58.970Z,11.25
2022-11-20T08:48:20.468Z,11.48
2022-11-20T08:51:30.615Z,11.68
2022-11-20T08:54:40.787Z,12.02
2022-11-20T08:57:50.881Z,11.60
2022-11-20T09:01:02.058Z,12.35
2022-11-20T09:04:16.313Z,11.77
2022-11-20T09:07:22.153Z,12.00
2022-11-20T09:10:32.262Z,11.32
2022-11-20T09:13:38.501Z,11.82
2022-11-20T09:16:47.169Z,11.75
2022-11-20T09:19:57.382Z,12.35
2022-11-20T09:23:13.168Z,11.75
2022-11-20T09:26:19.380Z,12.23
2022-11-20T09:29:28.951Z,12.50
2022-11-20T09:36:04.844Z,12.38
2022-11-20T09:39:11.088Z,12.07
2022-11-20T09:42:26.986Z,13.40
2022-11-20T09:45:42.070Z,11.10
2022-11-20T09:49:01.631Z,18.13
2022-11-20T09:52:18.802Z,13.60
2022-11-20T09:55:28.789Z,12.43
2022-11-20T09:58:46.319Z,11.80
2022-11-20T10:01:58.638Z,12.73
2022-11-20T10:05:08.190Z,11.80
2022-11-20T10:08:51.574Z,12.68
2022-11-20T10:12:09.134Z,12.52
2022-11-20T10:15:23.293Z,11.43
2022-11-20T10:22:18.447Z,11.75
2022-11-20T10:25:53.192Z,12.75
2022-11-20T10:29:11.964Z,13.15
2022-11-20T10:32:42.602Z,13.45
2022-11-20T10:35:54.752Z,11.25
2022-11-20T10:39:02.755Z,13.25
2022-11-20T10:42:13.117Z,13.13
2022-11-20T10:45:28.470Z,14.02
2022-11-20T10:48:36.566Z,15.02
2022-11-20T10:51:44.558Z,13.52
2022-11-20T10:54:56.172Z,13.73
2022-11-20T10:58:06.066Z,13.63
2022-11-20T11:01:19.674Z,12.73
2022-11-20T11:04:35.181Z,14.45
2022-11-20T11:07:47.920Z,13.90
2022-11-20T11:10:55.934Z,13.85
2022-11-20T11:14:11.264Z,13.98
2022-11-20T11:17:31.626Z,13.68
2022-11-20T11:20:40.566Z,13.70
2022-11-20T11:23:47.596Z,13.60
2022-11-20T11:27:07.017Z,13.13
2022-11-20T11:30:19.228Z,12.63
2022-11-20T11:33:27.888Z,13.90
2022-11-20T11:36:36.978Z,13.18
2022-11-20T11:40:22.403Z,14.05
2022-11-20T11:43:37.967Z,14.30
2022-11-20T11:46:52.153Z,13.52
2022-11-20T11:50:07.569Z,13.82
2022-11-20T11:53:19.386Z,14.30
2022-11-20T11:56:24.938Z,14.73
2022-11-20T11:59:31.223Z,12.45
2022-11-20T12:02:42.839Z,14.43
2022-11-20T12:05:50.037Z,14.43
2022-11-20T12:09:00.114Z,14.10
2022-11-20T12:12:09.835Z,13.70
2022-11-20T12:15:16.038Z,15.02
2022-11-20T12:18:40.038Z,14.10
2022-11-20T12:21:55.144Z,14.32
2022-11-20T12:25:08.894Z,13.48
2022-11-20T12:28:30.782Z,14.68
2022-11-20T12:31:48.721Z,15.23
2022-11-20T12:35:08.586Z,14.93
2022-11-20T12:38:31.748Z,14.52
2022-11-20T12:42:01.524Z,15.80
2022-11-20T12:45:18.951Z,16.17
2022-11-20T12:48:44.928Z,15.85
2022-11-20T12:52:01.925Z,15.45
2022-11-20T12:55:13.503Z,15.00
2022-11-20T12:58:27.828Z,15.33
2022-11-20T13:01:45.320Z,15.65
2022-11-20T13:05:01.653Z,16.00
2022-11-20T13:08:10.391Z,15.02
2022-11-20T13:11:20.863Z,16.23
2022-11-20T13:14:40.085Z,15.10
2022-11-20T13:17:51.378Z,17.25
2022-11-20T13:20:56.636Z,16.20
2022-11-20T13:24:12.944Z,16.02
2022-11-20T13:27:32.104Z,16.23
2022-11-20T13:30:53.050Z,16.08
2022-11-20T13:34:00.594Z,17.55
2022-11-20T13:37:07.194Z,17.73
2022-11-20T13:40:18.423Z,16.52
2022-11-20T13:43:29.945Z,16.67
2022-11-20T13:46:45.925Z,19.23
2022-11-20T13:49:56.401Z,18.20
2022-11-20T13:53:11.102Z,17.83
2022-11-20T13:56:29.024Z,17.90
2022-11-20T13:59:41.333Z,17.58
2022-11-20T14:02:54.898Z,18.33
2022-11-20T14:06:06.850Z,17.55
2022-11-20T14:12:23.433Z,17.27
2022-11-20T14:15:34.522Z,16.45
2022-11-20T14:18:49.365Z,17.73
2022-11-20T14:22:03.779Z,17.23
2022-11-20T14:25:10.385Z,15.73
2022-11-20T14:28:25.114Z,16.35
2022-11-20T14:31:33.312Z,17.20
2022-11-20T14:34:44.767Z,17.00
2022-11-20T14:37:53.570Z,18.23
2022-11-20T14:41:09.317Z,17.42
2022-11-20T14:44:18.313Z,18.45
2022-11-20T14:47:33.604Z,18.48
2022-11-20T14:50:49.908Z,18.70
2022-11-20T14:53:56.454Z,18.13
2022-11-20T14:57:05.293Z,19.33
2022-11-20T15:00:22.952Z,19.15
2022-11-20T15:03:34.682Z,18.58
2022-11-20T15:06:53.857Z,17.85
2022-11-20T15:10:05.823Z,16.70
2022-11-20T15:13:22.776Z,17.02
2022-11-20T15:16:30.251Z,18.77
2022-11-20T15:19:39.177Z,18.17
2022-11-20T15:22:48.968Z,20.13
2022-11-20T15:26:00.565Z,18.75
2022-11-20T15:29:07.166Z,17.85
2022-11-20T15:32:13.774Z,17.50
2022-11-20T15:35:22.451Z,17.20
2022-11-20T15:38:36.510Z,17.48
2022-11-20T15:41:41.835Z,18.15
2022-11-20T15:44:49.824Z,17.20
2022-11-20T15:47:55.877Z,18.75
2022-11-20T15:51:06.049Z,19.98
2022-11-20T15:54:19.056Z,16.55
2022-11-20T15:57:26.545Z,16.93
2022-11-20T16:00:32.085Z,19.02
2022-11-20T16:03:40.167Z,18.00
2022-11-20T16:06:50.190Z,18.10
2022-11-20T16:10:01.783Z,17.25
2022-11-20T16:13:19.217Z,16.13
2022-11-20T16:16:27.144Z,19.58
2022-11-20T16:19:37.762Z,16.52
2022-11-20T16:22:43.386Z,17.33
2022-11-20T16:25:52.855Z,18.08
2022-11-20T16:28:59.355Z,17.38
2022-11-20T16:32:05.388Z,15.38
2022-11-20T16:35:12.039Z,16.00
2022-11-20T16:38:19.841Z,15.93
2022-11-20T16:41:37.010Z,14.77
2022-11-20T16:44:51.055Z,15.90
2022-11-20T16:47:57.485Z,13.63
2022-11-20T16:51:05.983Z,14.43
2022-11-20T16:54:15.177Z,14.85
2022-11-20T16:57:31.586Z,13.23
2022-11-20T17:00:51.158Z,11.95
2022-11-20T17:03:57.844Z,12.55
2022-11-20T17:07:08.135Z,12.02
2022-11-20T17:10:16.451Z,11.90
2022-11-20T17:13:24.730Z,11.15
2022-11-20T17:16:41.470Z,9.38
2022-11-20T17:19:47.688Z,12.43
2022-11-20T17:22:54.466Z,11.73
2022-11-20T17:26:07.127Z,12.32
2022-11-20T17:29:17.708Z,11.60
2022-11-20T17:32:27.991Z,12.68
2022-11-20T17:35:43.822Z,11.52
2022-11-20T17:38:49.809Z,10.48
2022-11-20T17:42:09.125Z,10.77
2022-11-20T17:45:18.074Z,11.45
2022-11-20T17:48:24.988Z,10.95
2022-11-20T17:51:31.123Z,12.02
2022-11-20T17:54:38.196Z,10.77
2022-11-20T17:57:57.339Z,10.18
2022-11-20T18:01:10.413Z,10.52
2022-11-20T18:04:17.185Z,9.80
2022-11-20T18:07:22.470Z,10.52
2022-11-20T18:10:29.433Z,9.73
2022-11-20T18:13:48.879Z,10.80
2022-11-20T18:17:03.272Z,10.40
2022-11-20T18:23:37.030Z,11.20
2022-11-20T18:26:44.533Z,10.15
2022-11-20T18:29:54.384Z,9.52
2022-11-20T18:33:02.754Z,10.15
2022-11-20T18:36:14.771Z,10.15
2022-11-20T18:39:20.664Z,11.50
2022-11-20T18:42:39.165Z,10.73
2022-11-20T18:45:46.891Z,10.93
2022-11-20T18:48:55.693Z,7.50
2022-11-20T18:52:04.330Z,9.38
2022-11-20T18:55:12.131Z,9.57
2022-11-20T18:58:21.343Z,9.82
2022-11-20T19:01:26.968Z,6.68
2022-11-20T19:04:35.028Z,10.40
2022-11-20T19:07:43.536Z,10.73
2022-11-20T19:10:51.202Z,9.27
2022-11-20T19:14:02.896Z,8.82
2022-11-20T19:17:09.142Z,10.90
2022-11-20T19:20:32.242Z,4.85
2022-11-20T19:23:38.924Z,9.82
2022-11-20T19:26:45.389Z,10.85
2022-11-20T19:29:50.688Z,8.57
2022-11-20T19:33:00.192Z,11.15
2022-11-20T19:36:14.345Z,10.10
2022-11-20T19:39:23.910Z,11.90
2022-11-20T19:42:31.611Z,12.40
2022-11-20T19:45:37.079Z,11.50
2022-11-20T19:48:42.344Z,10.68
2022-11-20T19:51:56.609Z,11.07
2022-11-20T19:55:04.233Z,12.27
2022-11-20T19:58:09.936Z,11.27
2022-11-20T20:01:17.000Z,11.93
2022-11-20T20:04:22.422Z,12.40
2022-11-20T20:07:33.669Z,10.25
2022-11-20T20:10:43.701Z,12.52
2022-11-20T20:13:49.386Z,12.40
2022-11-20T20:16:59.000Z,12.18
2022-11-20T20:20:04.309Z,11.65
2022-11-20T20:23:12.911Z,13.65
2022-11-20T20:26:18.011Z,12.05
2022-11-20T20:29:24.857Z,11.98
2022-11-20T20:32:35.910Z,11.60
2022-11-20T20:35:49.212Z,11.75
2022-11-20T20:42:07.753Z,10.30
2022-11-20T20:45:14.185Z,11.82
2022-11-20T20:48:20.988Z,12.88
2022-11-20T20:51:27.074Z,11.00
2022-11-20T20:54:36.253Z,12.93
2022-11-20T20:57:47.290Z,12.98
2022-11-20T21:00:56.925Z,11.88
2022-11-20T21:04:05.674Z,12.63
2022-11-20T21:07:14.370Z,11.25
2022-11-20T21:10:23.731Z,11.57
2022-11-20T21:13:34.521Z,11.05
2022-11-20T21:16:44.218Z,14.05
2022-11-20T21:19:50.006Z,12.98
2022-11-20T21:22:54.410Z,12.43
2022-11-20T21:26:03.194Z,12.00
2022-11-20T21:29:19.291Z,11.82
2022-11-20T21:32:27.356Z,8.85
2022-11-20T21:35:32.679Z,10.25
2022-11-20T21:38:42.763Z,8.98
2022-11-20T21:42:03.220Z,8.00
2022-11-20T21:45:14.870Z,9.32
2022-11-20T21:48:22.485Z,7.20
2022-11-20T21:51:30.445Z,7.88
2022-11-20T21:54:37.363Z,5.57
2022-11-20T21:57:45.217Z,6.63
2022-11-20T22:00:54.353Z,4.95
2022-11-20T22:04:02.671Z,5.20
2022-11-20T22:07:19.722Z,6.15
2022-11-20T22:10:28.074Z,5.57
2022-11-20T22:13:45.666Z,6.82
2022-11-20T22:16:58.122Z,4.50
2022-11-20T22:20:03.332Z,5.80
2022-11-20T22:23:12.909Z,3.88
2022-11-20T22:26:20.455Z,5.05
2022-11-20T22:29:25.884Z,4.85
2022-11-20T22:32:34.936Z,5.22
2022-11-20T22:35:52.190Z,5.13
2022-11-20T22:38:58.726Z,4.72
2022-11-20T22:42:08.162Z,2.88
2022-11-20T22:45:14.217Z,4.28
2022-11-20T22:48:34.555Z,4.10
2022-11-20T22:51:50.702Z,3.38
2022-11-20T22:55:02.498Z,2.95
2022-11-20T22:58:10.294Z,3.80
2022-11-20T23:01:20.914Z,3.83
2022-11-20T23:04:35.965Z,3.83
2022-11-20T23:07:46.085Z,3.72
2022-11-20T23:10:55.875Z,3.22
2022-11-20T23:14:03.642Z,3.92
2022-11-20T23:17:11.462Z,3.15
2022-11-20T23:20:22.290Z,3.63
2022-11-20T23:23:29.591Z,2.70
2022-11-20T23:26:37.098Z,3.40
2022-11-20T23:29:43.241Z,4.13
2022-11-20T23:32:49.063Z,3.63
2022-11-20T23:36:00.888Z,4.10
2022-11-20T23:39:09.133Z,4.57
2022-11-20T23:42:20.366Z,3.85
2022-11-20T23:45:29.564Z,4.63
2022-11-20T23:48:39.969Z,3.83
2022-11-20T23:51:52.574Z,5.28
2022-11-20T23:54:58.794Z,5.10
2022-11-20T23:58:05.275Z,5.47
